createdAt,value
2023-02-22T00:01:35.455Z,37.10
2023-02-22T00:04:04.681Z,41.03
2023-02-22T00:06:35.276Z,39.43
2023-02-22T00:09:03.431Z,39.53
2023-02-22T00:11:32.229Z,37.37
2023-02-22T00:14:04.148Z,40.17
2023-02-22T00:16:32.432Z,36.87
2023-02-22T00:19:00.642Z,38.17
2023-02-22T00:21:31.145Z,38.60
2023-02-22T00:23:59.256Z,37.70
2023-02-22T00:26:27.752Z,42.27
2023-02-22T00:28:56.372Z,39.07
2023-02-22T00:31:28.451Z,38.13
2023-02-22T00:33:58.846Z,39.50
2023-02-22T00:36:27.047Z,37.23
2023-02-22T00:38:55.645Z,38.37
2023-02-22T00:41:25.852Z,39.90
2023-02-22T00:43:56.476Z,40.53
2023-02-22T00:46:24.609Z,38.80
2023-02-22T00:48:55.857Z,37.77
2023-02-22T00:51:26.765Z,39.87
2023-02-22T00:53:56.909Z,39.40
2023-02-22T00:56:25.098Z,40.40
2023-02-22T00:58:56.166Z,39.87
2023-02-22T01:01:26.642Z,38.03
2023-02-22T01:03:59.095Z,36.53
2023-02-22T01:06:27.380Z,39.17
2023-02-22T01:08:55.568Z,38.20
2023-02-22T01:11:25.501Z,37.13
2023-02-22T01:13:55.353Z,35.27
2023-02-22T01:16:23.740Z,34.93
2023-02-22T01:18:54.280Z,36.93
2023-02-22T01:21:23.837Z,35.50
2023-02-22T01:23:52.054Z,36.00
2023-02-22T01:26:20.244Z,34.50
2023-02-22T01:29:07.140Z,35.43
2023-02-22T01:31:35.338Z,32.13
2023-02-22T01:34:03.516Z,34.40
2023-02-22T01:36:32.958Z,32.37
2023-02-22T01:39:03.310Z,33.20
2023-02-22T01:41:31.421Z,30.63
2023-02-22T01:44:15.199Z,30.13
2023-02-22T01:46:45.442Z,32.60
2023-02-22T01:49:15.975Z,33.03
2023-02-22T01:51:48.344Z,31.53
2023-02-22T01:54:19.851Z,30.33
2023-02-22T01:56:53.981Z,29.23
2023-02-22T01:59:24.964Z,31.47
2023-02-22T02:01:53.106Z,30.47
2023-02-22T02:04:25.480Z,31.50
2023-02-22T02:07:01.549Z,34.87
2023-02-22T02:09:35.257Z,31.07
2023-02-22T02:12:05.097Z,34.73
2023-02-22T02:14:33.373Z,33.80
2023-02-22T02:17:02.313Z,32.13
2023-02-22T02:19:41.890Z,32.43
2023-02-22T02:22:42.746Z,29.43
2023-02-22T02:26:00.555Z,29.77
2023-02-22T02:28:56.911Z,27.13
2023-02-22T02:32:06.081Z,28.40
2023-02-22T02:34:41.689Z,27.37
2023-02-22T02:37:21.222Z,25.47
2023-02-22T02:39:56.310Z,26.30
2023-02-22T02:42:30.935Z,25.60
2023-02-22T02:45:05.104Z,24.73
2023-02-22T02:47:39.888Z,26.40
2023-02-22T02:50:15.090Z,26.93
2023-02-22T02:52:47.498Z,26.30
2023-02-22T02:55:16.115Z,27.17
2023-02-22T02:57:44.998Z,26.97
2023-02-22T03:00:23.300Z,30.77
2023-02-22T03:03:06.500Z,28.33
2023-02-22T03:05:59.505Z,30.07
2023-02-22T03:08:35.722Z,28.20
2023-02-22T03:11:15.267Z,29.77
2023-02-22T03:13:55.583Z,27.40
2023-02-22T03:16:35.813Z,26.27
2023-02-22T03:19:12.737Z,26.67
2023-02-22T03:21:47.977Z,25.63
2023-02-22T03:24:22.972Z,27.20
2023-02-22T03:26:59.200Z,28.43
2023-02-22T03:29:36.542Z,25.80
2023-02-22T03:32:11.284Z,25.83
2023-02-22T03:34:47.527Z,24.87
2023-02-22T03:37:21.074Z,23.77
2023-02-22T03:39:52.892Z,23.37
2023-02-22T03:42:25.039Z,24.43
2023-02-22T03:44:59.601Z,25.17
2023-02-22T03:47:33.475Z,24.00
2023-02-22T03:50:12.653Z,25.10
2023-02-22T03:52:41.532Z,25.40
2023-02-22T03:55:17.663Z,22.27
2023-02-22T03:57:52.153Z,23.53
2023-02-22T04:00:23.741Z,24.00
2023-02-22T04:02:53.977Z,21.93
2023-02-22T04:05:26.170Z,21.43
2023-02-22T04:07:58.556Z,21.80
2023-02-22T04:10:29.124Z,21.07
2023-02-22T04:12:57.396Z,22.07
2023-02-22T04:15:26.318Z,21.73
2023-02-22T04:17:59.964Z,20.60
2023-02-22T04:20:32.655Z,23.47
2023-02-22T04:23:06.200Z,22.30
2023-02-22T04:25:39.146Z,20.83
2023-02-22T04:28:12.887Z,21.63
2023-02-22T04:30:48.541Z,21.47
2023-02-22T04:33:18.877Z,21.67
2023-02-22T04:35:51.530Z,20.73
2023-02-22T04:38:19.840Z,22.27
2023-02-22T04:40:49.098Z,22.67
2023-02-22T04:43:17.278Z,21.97
2023-02-22T04:45:45.462Z,19.83
2023-02-22T04:48:15.732Z,21.67
2023-02-22T04:50:44.102Z,22.33
2023-02-22T04:53:13.660Z,23.30
2023-02-22T04:55:44.037Z,21.70
2023-02-22T04:58:12.541Z,21.43
2023-02-22T05:00:40.593Z,21.23
2023-02-22T05:03:09.031Z,23.97
2023-02-22T05:05:39.189Z,22.43
2023-02-22T05:08:07.732Z,21.33
2023-02-22T05:10:37.369Z,19.53
2023-02-22T05:13:09.242Z,19.77
2023-02-22T05:15:37.660Z,20.77
2023-02-22T05:18:06.043Z,21.03
2023-02-22T05:20:37.067Z,21.47
2023-02-22T05:23:07.405Z,21.23
2023-02-22T05:25:37.025Z,20.73
2023-02-22T05:28:07.042Z,20.43
2023-02-22T05:30:40.377Z,20.03
2023-02-22T05:33:08.970Z,21.30
2023-02-22T05:35:39.511Z,20.10
2023-02-22T05:38:08.557Z,21.93
2023-02-22T05:40:38.203Z,23.00
2023-02-22T05:43:06.502Z,21.97
2023-02-22T05:45:34.807Z,23.67
2023-02-22T05:48:03.691Z,24.20
2023-02-22T05:50:34.150Z,21.80
2023-02-22T05:53:05.633Z,22.93
2023-02-22T05:55:33.783Z,21.00
2023-02-22T05:58:05.780Z,21.03
2023-02-22T06:00:36.474Z,21.37
2023-02-22T06:03:06.992Z,19.80
2023-02-22T06:05:35.491Z,18.10
2023-02-22T06:08:04.707Z,20.27
2023-02-22T06:10:35.403Z,18.13
2023-02-22T06:13:06.227Z,19.03
2023-02-22T06:15:36.904Z,26.70
2023-02-22T06:18:07.211Z,21.40
2023-02-22T06:20:37.899Z,19.00
2023-02-22T06:23:06.059Z,21.17
2023-02-22T06:25:36.702Z,18.67
2023-02-22T06:28:06.407Z,19.40
2023-02-22T06:30:34.885Z,18.60
2023-02-22T06:33:02.994Z,18.43
2023-02-22T06:35:33.254Z,19.63
2023-02-22T06:38:04.156Z,18.97
2023-02-22T06:40:34.789Z,17.40
2023-02-22T06:43:06.350Z,17.00
2023-02-22T06:45:36.558Z,19.20
2023-02-22T06:48:07.501Z,18.03
2023-02-22T06:50:38.222Z,19.53
2023-02-22T06:53:09.272Z,18.07
2023-02-22T06:55:39.869Z,18.30
2023-02-22T06:58:11.915Z,16.10
2023-02-22T07:00:40.009Z,17.00
2023-02-22T07:03:08.292Z,16.93
2023-02-22T07:05:36.482Z,17.07
2023-02-22T07:08:06.578Z,17.33
2023-02-22T07:10:38.936Z,18.43
2023-02-22T07:13:08.928Z,17.73
2023-02-22T07:15:38.584Z,17.07
2023-02-22T07:18:09.227Z,16.30
2023-02-22T07:20:37.304Z,17.83
2023-02-22T07:23:05.933Z,17.10
2023-02-22T07:25:36.750Z,16.33
2023-02-22T07:28:05.220Z,17.33
2023-02-22T07:30:35.691Z,15.90
2023-02-22T07:33:07.031Z,18.77
2023-02-22T07:35:39.469Z,17.23
2023-02-22T07:38:09.238Z,18.57
2023-02-22T07:40:39.333Z,16.93
2023-02-22T07:43:16.905Z,17.97
2023-02-22T07:45:45.629Z,16.87
2023-02-22T07:48:17.616Z,18.43
2023-02-22T07:50:46.582Z,18.27
2023-02-22T07:53:16.388Z,16.77
2023-02-22T07:55:47.765Z,16.13
2023-02-22T07:58:16.690Z,16.77
2023-02-22T08:00:45.045Z,17.70
2023-02-22T08:03:19.287Z,16.73
2023-02-22T08:05:49.294Z,17.47
2023-02-22T08:08:19.852Z,17.70
2023-02-22T08:10:49.094Z,15.43
2023-02-22T08:13:17.731Z,16.03
2023-02-22T08:15:47.225Z,15.73
2023-02-22T08:18:19.517Z,14.67
2023-02-22T08:20:49.665Z,16.40
2023-02-22T08:23:19.695Z,15.47
2023-02-22T08:25:50.181Z,16.33
2023-02-22T08:28:21.596Z,16.60
2023-02-22T08:30:52.504Z,15.47
2023-02-22T08:33:22.551Z,15.53
2023-02-22T08:35:51.728Z,15.33
2023-02-22T08:38:22.378Z,15.27
2023-02-22T08:40:53.120Z,14.57
2023-02-22T08:43:22.103Z,16.10
2023-02-22T08:45:51.596Z,15.30
2023-02-22T08:48:21.832Z,15.07
2023-02-22T08:50:50.201Z,16.63
2023-02-22T08:53:20.626Z,16.97
2023-02-22T08:55:51.275Z,13.70
2023-02-22T08:58:19.559Z,15.27
2023-02-22T09:00:48.366Z,16.27
2023-02-22T09:03:17.574Z,15.17
2023-02-22T09:05:47.158Z,15.83
2023-02-22T09:08:17.696Z,15.37
2023-02-22T09:10:46.359Z,15.40
2023-02-22T09:13:14.737Z,14.10
2023-02-22T09:15:42.882Z,16.13
2023-02-22T09:18:14.847Z,15.40
2023-02-22T09:20:43.323Z,14.80
2023-02-22T09:23:15.531Z,16.17
2023-02-22T09:25:43.666Z,14.60
2023-02-22T09:28:11.797Z,14.17
2023-02-22T09:30:40.131Z,14.57
2023-02-22T09:33:10.972Z,15.83
2023-02-22T09:35:46.348Z,15.33
2023-02-22T09:38:18.164Z,14.47
2023-02-22T09:40:49.997Z,15.27
2023-02-22T09:43:36.515Z,13.90
2023-02-22T09:46:23.434Z,15.40
2023-02-22T09:49:08.215Z,15.37
2023-02-22T09:51:42.896Z,14.80
2023-02-22T09:54:19.249Z,14.67
2023-02-22T09:56:49.622Z,15.13
2023-02-22T09:59:27.877Z,15.77
2023-02-22T10:02:06.689Z,15.03
2023-02-22T10:04:42.911Z,15.80
2023-02-22T10:07:19.415Z,14.83
2023-02-22T10:09:50.716Z,14.37
2023-02-22T10:12:29.486Z,15.33
2023-02-22T10:15:27.459Z,14.97
2023-02-22T10:18:04.954Z,13.97
2023-02-22T10:20:48.643Z,14.63
2023-02-22T10:23:25.253Z,13.37
2023-02-22T10:26:01.399Z,14.07
2023-02-22T10:28:40.626Z,14.80
2023-02-22T10:31:09.750Z,13.93
2023-02-22T10:33:47.859Z,15.27
2023-02-22T10:36:21.165Z,14.93
2023-02-22T10:38:54.652Z,14.63
2023-02-22T10:41:30.509Z,14.17
2023-02-22T10:44:06.120Z,15.40
2023-02-22T10:46:36.152Z,13.63
2023-02-22T10:49:08.112Z,15.07
2023-02-22T10:51:36.913Z,14.27
2023-02-22T10:54:22.293Z,14.67
2023-02-22T10:56:54.963Z,13.87
2023-02-22T10:59:32.791Z,14.97
2023-02-22T11:02:02.030Z,13.63
2023-02-22T11:04:46.590Z,14.47
2023-02-22T11:07:22.878Z,14.90
2023-02-22T11:09:54.708Z,13.93
2023-02-22T11:12:30.024Z,13.27
2023-02-22T11:14:58.153Z,14.10
2023-02-22T11:17:31.518Z,14.60
2023-02-22T11:20:01.032Z,14.53
2023-02-22T11:22:41.236Z,13.33
2023-02-22T11:25:10.270Z,14.33
2023-02-22T11:27:43.774Z,14.23
2023-02-22T11:30:29.531Z,13.80
2023-02-22T11:32:59.955Z,13.10
2023-02-22T11:35:38.825Z,12.93
2023-02-22T11:38:18.034Z,13.53
2023-02-22T11:40:46.813Z,14.83
2023-02-22T11:43:20.177Z,14.90
2023-02-22T11:46:02.395Z,16.33
2023-02-22T11:48:36.762Z,13.87
2023-02-22T11:51:17.803Z,13.60
2023-02-22T11:54:05.807Z,13.47
2023-02-22T11:56:41.108Z,13.17
2023-02-22T11:59:22.827Z,18.40
2023-02-22T12:01:55.476Z,13.33
2023-02-22T12:04:47.018Z,12.93
2023-02-22T12:07:27.134Z,13.07
2023-02-22T12:10:06.275Z,13.03
2023-02-22T12:12:44.231Z,11.90
2023-02-22T12:15:23.420Z,13.20
2023-02-22T12:18:05.192Z,13.10
2023-02-22T12:20:39.774Z,13.43
2023-02-22T12:23:20.111Z,12.57
2023-02-22T12:25:58.859Z,12.20
2023-02-22T12:28:35.353Z,11.77
2023-02-22T12:31:16.002Z,11.60
2023-02-22T12:33:52.872Z,10.73
2023-02-22T12:36:26.157Z,11.43
2023-02-22T12:39:07.227Z,11.13
2023-02-22T12:41:44.906Z,15.70
2023-02-22T12:44:20.654Z,11.60
2023-02-22T12:46:53.511Z,11.50
2023-02-22T12:49:29.505Z,10.70
2023-02-22T12:52:15.976Z,11.30
2023-02-22T12:55:00.699Z,10.73
2023-02-22T12:57:42.678Z,10.37
2023-02-22T13:00:20.300Z,10.30
2023-02-22T13:02:59.788Z,10.90
2023-02-22T13:05:31.540Z,10.63
2023-02-22T13:08:14.708Z,10.50
2023-02-22T13:11:02.685Z,10.03
2023-02-22T13:13:39.994Z,10.03
2023-02-22T13:16:21.889Z,9.70
2023-02-22T13:18:57.995Z,10.33
2023-02-22T13:21:37.439Z,10.77
2023-02-22T13:24:13.627Z,10.67
2023-02-22T13:26:48.404Z,11.03
2023-02-22T13:29:21.813Z,10.00
2023-02-22T13:32:16.296Z,10.50
2023-02-22T13:34:59.449Z,10.50
2023-02-22T13:37:54.753Z,11.00
2023-02-22T13:40:46.561Z,9.83
2023-02-22T13:43:51.337Z,10.03
2023-02-22T13:46:38.162Z,10.83
2023-02-22T13:49:40.578Z,11.10
2023-02-22T13:52:15.249Z,10.67
2023-02-22T13:54:51.507Z,10.27
2023-02-22T13:57:22.163Z,9.67
2023-02-22T14:00:11.333Z,9.87
2023-02-22T14:02:59.899Z,10.93
2023-02-22T14:05:49.719Z,9.90
2023-02-22T14:08:41.983Z,9.97
2023-02-22T14:11:54.112Z,9.77
2023-02-22T14:14:25.783Z,10.40
2023-02-22T14:17:23.874Z,10.10
2023-02-22T14:20:20.836Z,10.10
2023-02-22T14:22:50.950Z,9.90
2023-02-22T14:25:40.330Z,9.93
2023-02-22T14:28:11.169Z,10.50
2023-02-22T14:30:41.911Z,10.20
2023-02-22T14:33:47.278Z,9.17
2023-02-22T14:36:15.763Z,9.70
2023-02-22T14:38:47.760Z,9.97
2023-02-22T14:41:18.728Z,10.40
2023-02-22T14:43:47.681Z,9.83
2023-02-22T14:46:24.051Z,8.83
2023-02-22T14:48:58.269Z,9.67
2023-02-22T14:51:30.197Z,9.87
2023-02-22T14:54:04.747Z,10.07
2023-02-22T14:56:41.222Z,10.07
2023-02-22T14:59:19.536Z,8.80
2023-02-22T15:02:01.518Z,7.90
2023-02-22T15:04:34.405Z,8.03
2023-02-22T15:07:12.657Z,8.83
2023-02-22T15:09:46.686Z,8.60
2023-02-22T15:12:29.831Z,7.90
2023-02-22T15:15:18.570Z,8.43
2023-02-22T15:17:47.169Z,8.27
2023-02-22T15:20:17.925Z,8.23
2023-02-22T15:22:46.388Z,8.83
2023-02-22T15:25:15.291Z,7.73
2023-02-22T15:27:47.892Z,7.83
2023-02-22T15:30:23.399Z,8.03
2023-02-22T15:33:04.018Z,8.60
2023-02-22T15:35:35.371Z,7.77
2023-02-22T15:38:06.215Z,8.77
2023-02-22T15:40:37.140Z,8.33
2023-02-22T15:43:09.354Z,8.27
2023-02-22T15:45:42.940Z,7.90
2023-02-22T15:48:15.815Z,8.33
2023-02-22T15:51:04.168Z,8.60
2023-02-22T15:53:40.040Z,8.10
2023-02-22T15:56:12.364Z,7.93
2023-02-22T15:58:43.221Z,8.70
2023-02-22T16:01:14.322Z,7.83
2023-02-22T16:03:47.074Z,7.57
2023-02-22T16:06:22.086Z,8.80
2023-02-22T16:08:55.531Z,8.53
2023-02-22T16:11:30.778Z,7.87
2023-02-22T16:14:02.565Z,8.30
2023-02-22T16:16:34.990Z,8.10
2023-02-22T16:19:34.478Z,7.63
2023-02-22T16:22:04.565Z,7.30
2023-02-22T16:24:34.716Z,7.63
2023-02-22T16:27:16.707Z,7.93
2023-02-22T16:30:01.441Z,7.70
2023-02-22T16:32:30.426Z,7.57
2023-02-22T16:34:58.647Z,7.87
2023-02-22T16:37:28.575Z,7.20
2023-02-22T16:39:56.841Z,7.60
2023-02-22T16:42:25.160Z,7.87
2023-02-22T16:44:54.806Z,7.60
2023-02-22T16:47:23.252Z,7.83
2023-02-22T16:49:53.149Z,8.07
2023-02-22T16:52:22.097Z,7.50
2023-02-22T16:54:52.106Z,7.80
2023-02-22T16:57:22.605Z,7.83
2023-02-22T16:59:52.811Z,8.43
2023-02-22T17:02:22.962Z,8.83
2023-02-22T17:04:51.207Z,8.57
2023-02-22T17:07:24.191Z,8.90
2023-02-22T17:09:52.769Z,8.77
2023-02-22T17:12:21.018Z,8.50
2023-02-22T17:14:49.304Z,8.80
2023-02-22T17:17:17.785Z,9.50
2023-02-22T17:19:47.462Z,9.30
2023-02-22T17:22:19.026Z,8.93
2023-02-22T17:24:47.322Z,8.80
2023-02-22T17:27:15.621Z,9.83
2023-02-22T17:29:45.122Z,8.90
2023-02-22T17:32:14.201Z,9.10
2023-02-22T17:34:42.443Z,11.37
2023-02-22T17:37:12.393Z,12.43
2023-02-22T17:39:40.673Z,11.73
2023-02-22T17:42:08.881Z,11.90
2023-02-22T17:44:37.253Z,12.67
2023-02-22T17:47:06.165Z,13.20
2023-02-22T17:49:34.403Z,13.10
2023-02-22T17:52:06.308Z,13.23
2023-02-22T17:54:35.979Z,13.47
2023-02-22T17:57:04.388Z,13.30
2023-02-22T17:59:32.778Z,11.83
2023-02-22T18:02:03.617Z,15.00
2023-02-22T18:04:34.048Z,13.20
2023-02-22T18:07:02.334Z,12.90
2023-02-22T18:09:30.511Z,13.80
2023-02-22T18:12:00.128Z,14.40
2023-02-22T18:14:30.730Z,13.80
2023-02-22T18:16:58.865Z,14.70
2023-02-22T18:19:29.257Z,15.10
2023-02-22T18:22:00.141Z,13.00
2023-02-22T18:24:39.159Z,13.77
2023-02-22T18:27:21.284Z,14.10
2023-02-22T18:29:52.805Z,14.23
2023-02-22T18:32:23.252Z,14.87
2023-02-22T18:34:53.843Z,14.97
2023-02-22T18:37:22.064Z,15.55
2023-02-22T18:39:50.334Z,14.40
2023-02-22T18:42:21.482Z,16.87
2023-02-22T18:44:49.897Z,15.27
2023-02-22T18:47:18.787Z,15.90
2023-02-22T18:49:47.124Z,16.50
2023-02-22T18:52:15.684Z,16.57
2023-02-22T18:54:44.256Z,20.23
2023-02-22T18:57:13.635Z,19.70
2023-02-22T18:59:46.062Z,18.47
2023-02-22T19:02:15.432Z,17.53
2023-02-22T19:04:44.608Z,16.70
2023-02-22T19:07:17.951Z,16.67
2023-02-22T19:09:51.038Z,17.60
2023-02-22T19:12:19.180Z,15.43
2023-02-22T19:15:15.178Z,16.47
2023-02-22T19:17:47.330Z,16.03
2023-02-22T19:20:17.680Z,15.77
2023-02-22T19:22:49.570Z,15.00
2023-02-22T19:25:19.998Z,15.27
2023-02-22T19:27:50.708Z,16.17
2023-02-22T19:30:20.421Z,13.53
2023-02-22T19:32:48.737Z,15.53
2023-02-22T19:35:26.154Z,16.50
2023-02-22T19:37:57.124Z,18.43
2023-02-22T19:40:27.763Z,17.30
2023-02-22T19:42:58.615Z,24.23
2023-02-22T19:45:28.910Z,21.97
2023-02-22T19:48:00.604Z,17.20
2023-02-22T19:50:28.879Z,18.60
2023-02-22T19:52:59.397Z,15.83
2023-02-22T19:55:32.413Z,14.77
2023-02-22T19:58:01.203Z,16.33
2023-02-22T20:00:35.516Z,15.50
2023-02-22T20:03:06.723Z,15.10
2023-02-22T20:05:39.424Z,16.03
2023-02-22T20:08:08.042Z,15.77
2023-02-22T20:10:37.085Z,16.80
2023-02-22T20:13:05.261Z,17.07
2023-02-22T20:15:37.316Z,16.13
2023-02-22T20:18:06.137Z,16.27
2023-02-22T20:20:34.746Z,17.37
2023-02-22T20:23:02.873Z,17.30
2023-02-22T20:25:31.513Z,16.90
2023-02-22T20:28:03.009Z,16.63
2023-02-22T20:30:32.539Z,16.57
2023-02-22T20:33:02.311Z,17.73
2023-02-22T20:35:30.606Z,18.33
2023-02-22T20:37:59.667Z,18.43
2023-02-22T20:40:28.374Z,17.47
2023-02-22T20:42:57.092Z,18.67
2023-02-22T20:45:27.901Z,17.67
2023-02-22T20:47:56.195Z,17.83
2023-02-22T20:50:26.139Z,19.53
2023-02-22T20:52:54.302Z,19.73
2023-02-22T20:55:25.636Z,19.33
2023-02-22T20:57:56.411Z,18.97
2023-02-22T21:00:24.689Z,19.10
2023-02-22T21:02:53.084Z,20.17
2023-02-22T21:05:25.142Z,19.53
2023-02-22T21:07:58.411Z,19.90
2023-02-22T21:10:26.973Z,19.40
2023-02-22T21:12:56.968Z,20.37
2023-02-22T21:15:27.106Z,20.50
2023-02-22T21:17:57.993Z,21.77
2023-02-22T21:20:29.812Z,24.13
2023-02-22T21:23:01.955Z,22.77
2023-02-22T21:25:31.542Z,23.73
2023-02-22T21:27:59.825Z,21.90
2023-02-22T21:30:30.641Z,24.40
2023-02-22T21:32:58.830Z,25.47
2023-02-22T21:35:31.210Z,27.03
2023-02-22T21:37:59.562Z,27.60
2023-02-22T21:40:28.981Z,28.67
2023-02-22T21:42:57.147Z,28.13
2023-02-22T21:45:26.144Z,28.53
2023-02-22T21:47:57.270Z,27.50
2023-02-22T21:50:25.565Z,28.20
2023-02-22T21:52:55.231Z,28.80
2023-02-22T21:55:25.872Z,27.43
2023-02-22T21:57:56.402Z,28.47
2023-02-22T22:00:29.262Z,29.67
2023-02-22T22:03:01.324Z,30.90
2023-02-22T22:05:34.027Z,30.43
2023-02-22T22:08:07.445Z,30.83
2023-02-22T22:10:37.141Z,31.57
2023-02-22T22:13:06.123Z,29.33
2023-02-22T22:15:36.915Z,30.20
2023-02-22T22:18:07.756Z,29.50
2023-02-22T22:20:38.509Z,30.97
2023-02-22T22:23:08.863Z,29.27
2023-02-22T22:25:39.139Z,28.70
2023-02-22T22:28:11.402Z,28.43
2023-02-22T22:30:43.666Z,29.20
2023-02-22T22:33:12.110Z,30.40
2023-02-22T22:35:42.514Z,31.43
2023-02-22T22:38:15.441Z,30.27
2023-02-22T22:40:43.675Z,31.73
2023-02-22T22:43:11.886Z,32.10
2023-02-22T22:45:40.967Z,32.07
2023-02-22T22:48:09.500Z,30.07
2023-02-22T22:50:37.726Z,29.53
2023-02-22T22:53:06.538Z,32.43
2023-02-22T22:55:41.711Z,30.83
2023-02-22T22:58:11.098Z,31.10
2023-02-22T23:00:40.285Z,29.90
2023-02-22T23:03:12.656Z,28.97
2023-02-22T23:05:43.249Z,30.37
2023-02-22T23:08:12.868Z,29.97
2023-02-22T23:10:44.873Z,29.93
2023-02-22T23:13:15.574Z,30.13
2023-02-22T23:15:48.103Z,32.67
2023-02-22T23:18:20.432Z,31.47
2023-02-22T23:20:55.142Z,31.77
2023-02-22T23:23:27.509Z,32.73
2023-02-22T23:26:11.740Z,31.50
2023-02-22T23:28:41.204Z,34.43
2023-02-22T23:31:10.821Z,37.23
2023-02-22T23:33:41.904Z,34.63
2023-02-22T23:36:12.839Z,38.50
2023-02-22T23:38:41.970Z,36.83
2023-02-22T23:41:17.079Z,37.13
2023-02-22T23:43:47.700Z,38.23
2023-02-22T23:46:19.414Z,40.17
2023-02-22T23:48:51.862Z,40.87
2023-02-22T23:51:25.451Z,39.33
2023-02-22T23:53:55.569Z,41.97
2023-02-22T23:56:27.495Z,38.37
2023-02-22T23:58:57.369Z,39.47
